»·PEaware :: WAT540 KLAS-KCOE

WAT540 :: KLAS-KCOE

FLIGHT INFORMATION

Flight Status: Arrived
Operator:
Walker Air Transport
More flights by this operator :: More flights under this callsign
Pilot: Michael R. (33632)
Aircraft: CESSNA 550 CITATION 2/S2/BRAVO
(C550)
More flights by this aircraft type
Origin: KLAS McCarran Intl
United States
Destination: KCOE Coeur d'Alene
United States
More flights between these airports :: More routes between these airports
Route: SHEAD1 KENNO BAM STUNN LEZLE
File this flight plan on PilotEdge
Remarks: RMK / SIMBRIEF
Altitude:
(Current/Filed)
40,000ft
Speed:
(Current/Filed)
360kts
Departed: 08-Apr-21 02:35 AM
Arrived: 08-Apr-21 03:36 AM
Distance/Time
Traveled:
706nm/1:01
Distance/Time
To Go:
Arrived

Flight Plot

Page will automatically refresh every two minutes.

Flight plan parsing failed; only flown route is shown


Map Options




Map Legend


Flown Route
Filed Route
Departure Airport
Arrival Airport
Navaid (VOR, NDB)
Fix

Horizontal Profiles

Position Reports

Time Latitude Longitude Heading Altitude Ground
Speed
08-Apr-21 02:34 42.197075 -117.033758 352 40044ft 377kts
08-Apr-21 02:35 42.301484 -117.041093 352 40052ft 377kts
08-Apr-21 02:36 42.405817 -117.048473 352 40045ft 377kts
08-Apr-21 02:37 42.510150 -117.055868 352 40035ft 377kts
08-Apr-21 02:38 42.614621 -117.063270 352 40045ft 377kts
08-Apr-21 02:39 42.718958 -117.070725 352 40044ft 377kts
08-Apr-21 02:40 42.823288 -117.078188 352 40037ft 377kts
08-Apr-21 02:41 42.927871 -117.085472 350 40031ft 376kts
08-Apr-21 02:42 43.032226 -117.092884 347 40006ft 378kts
08-Apr-21 02:43 43.137508 -117.100804 347 40008ft 381kts
08-Apr-21 02:44 43.242998 -117.108455 347 40004ft 382kts
08-Apr-21 02:45 43.348983 -117.116180 347 39998ft 383kts
08-Apr-21 02:46 43.455077 -117.123926 347 39986ft 383kts
08-Apr-21 02:47 43.561318 -117.131717 347 39983ft 383kts
08-Apr-21 02:48 43.668617 -117.134069 350 39975ft 387kts
08-Apr-21 02:49 43.775980 -117.135019 350 39977ft 386kts
08-Apr-21 02:50 43.883230 -117.135954 350 39952ft 387kts
08-Apr-21 02:51 43.990257 -117.136903 350 39945ft 387kts
08-Apr-21 02:51 44.079734 -117.137688 350 39943ft 387kts
08-Apr-21 02:53 44.204805 -117.138812 350 39934ft 387kts
08-Apr-21 02:54 44.312116 -117.139746 350 39921ft 387kts
08-Apr-21 02:55 44.419591 -117.140722 350 39903ft 387kts
08-Apr-21 02:56 44.527026 -117.141701 350 39902ft 387kts
08-Apr-21 02:57 44.634376 -117.142669 350 39894ft 387kts
08-Apr-21 02:57 44.723712 -117.143463 350 39887ft 387kts
08-Apr-21 02:58 44.831384 -117.144451 350 39875ft 387kts
08-Apr-21 03:00 44.956671 -117.145599 350 39864ft 387kts
08-Apr-21 03:01 45.064216 -117.146396 348 39855ft 389kts
08-Apr-21 03:02 45.173048 -117.147520 347 39834ft 392kts
08-Apr-21 03:02 45.263896 -117.148424 347 39826ft 394kts
08-Apr-21 03:03 45.373298 -117.149420 347 39820ft 394kts
08-Apr-21 03:04 45.483084 -117.150486 347 39744ft 395kts
08-Apr-21 03:05 45.593093 -117.151414 347 38329ft 396kts
08-Apr-21 03:06 45.702672 -117.152497 347 36720ft 396kts
08-Apr-21 03:07 45.812812 -117.153538 347 35074ft 396kts
08-Apr-21 03:08 45.922823 -117.154602 348 33400ft 399kts
08-Apr-21 03:09 46.033760 -117.155651 348 31633ft 396kts
08-Apr-21 03:10 46.141902 -117.155705 356 29875ft 395kts
08-Apr-21 03:11 46.240592 -117.072036 27 28248ft 417kts
08-Apr-21 03:12 46.334580 -116.977480 27 26657ft 408kts
08-Apr-21 03:13 46.430332 -116.913376 339 24407ft 361kts
08-Apr-21 03:14 46.525440 -116.938049 343 23759ft 348kts
08-Apr-21 03:15 46.620348 -116.952870 343 22349ft 342kts
08-Apr-21 03:16 46.713228 -116.967091 352 21140ft 343kts
08-Apr-21 03:17 46.791496 -116.949401 350 20114ft 327kts
08-Apr-21 03:18 46.882255 -116.953548 348 18481ft 324kts
08-Apr-21 03:19 46.970522 -116.960102 348 16913ft 315kts
08-Apr-21 03:20 47.055600 -116.973986 344 15591ft 301kts
08-Apr-21 03:21 47.139860 -116.991376 344 13776ft 293kts
08-Apr-21 03:22 47.220206 -117.009012 344 11672ft 283kts
08-Apr-21 03:23 47.298511 -117.027940 344 9529ft 278kts
08-Apr-21 03:24 47.373983 -117.048251 344 7975ft 276kts
08-Apr-21 03:25 47.449888 -117.070224 344 7267ft 277kts
08-Apr-21 03:26 47.526988 -117.062766 4 7228ft 268kts
08-Apr-21 03:27 47.592119 -117.047708 15 6950ft 221kts
08-Apr-21 03:28 47.643643 -117.009982 24 5752ft 181kts
08-Apr-21 03:29 47.684908 -116.980132 24 4887ft 141kts
08-Apr-21 03:30 47.718047 -116.957026 24 4181ft 129kts
08-Apr-21 03:31 47.748965 -116.932362 64 3584ft 121kts
08-Apr-21 03:32 47.759343 -116.888283 75 3024ft 110kts
08-Apr-21 03:33 47.769825 -116.845616 74 2422ft 106kts
08-Apr-21 03:34 47.776646 -116.817527 71 2303ft 42kts
08-Apr-21 03:35 47.777849 -116.809116 213 2316ft 9kts
08-Apr-21 03:36 47.775685 -116.810712 119 2315ft 1kts
08-Apr-21 03:37 47.775376 -116.811071 158 2313ft 0kts

Navigation Log

Ident Type
Flight plan parsing failed, navigation log unavailable